Time;durP1;ratioP1;P1;durP2;ratioP2;P2;SDS_P1;SDS_P2;PMS_P1;PMS_P2;Temp;Humidity;BMP_temperature;BMP_pressure;BME280_temperature;BME280_humidity;BME280_pressure;Samples;Min_cycle;Max_cycle;Signal;HPM_P1;HPM_P2
2022/10/26 00:02:15;;;;;;;30.08;16.60;;;9.30;99.90;;;;;;5047540;28;20395;-41
2022/10/26 00:04:40;;;;;;;33.97;17.95;;;8.80;99.90;;;;;;5047451;28;20142;-41
2022/10/26 00:07:06;;;;;;;31.30;17.23;;;9.00;99.90;;;;;;5045751;28;20045;-41
2022/10/26 00:09:32;;;;;;;34.47;18.38;;;8.90;99.90;;;;;;5046234;28;20171;-42
2022/10/26 00:11:57;;;;;;;33.25;17.45;;;9.50;99.90;;;;;;5047050;28;20037;-41
2022/10/26 00:14:23;;;;;;;34.22;16.88;;;8.80;99.90;;;;;;5047125;28;20443;-41
2022/10/26 00:16:49;;;;;;;33.17;16.70;;;9.00;99.90;;;;;;5047365;28;20398;-42
2022/10/26 00:19:14;;;;;;;32.13;16.73;;;8.80;99.90;;;;;;5047345;28;20045;-42
2022/10/26 00:21:40;;;;;;;36.58;18.90;;;9.20;99.90;;;;;;5047686;28;20052;-41
2022/10/26 00:24:06;;;;;;;47.50;18.15;;;9.50;99.90;;;;;;5046820;28;20510;-41
2022/10/26 00:26:31;;;;;;;37.70;18.85;;;9.10;99.90;;;;;;5047342;28;20516;-41
2022/10/26 00:28:57;;;;;;;36.25;17.88;;;9.00;99.90;;;;;;5047266;28;20041;-41
2022/10/26 00:31:23;;;;;;;36.45;19.05;;;9.20;99.90;;;;;;5046831;28;20128;-41
2022/10/26 00:33:53;;;;;;;39.03;17.77;;;10.30;99.90;;;;;;5053889;28;20044;-41
2022/10/26 00:36:19;;;;;;;34.95;19.30;;;9.10;99.90;;;;;;5067079;28;20049;-41
2022/10/26 00:38:53;;;;;;;40.13;19.85;;;9.10;99.90;;;;;;5066958;28;20045;-41
2022/10/26 00:41:25;;;;;;;39.85;19.15;;;9.00;99.90;;;;;;5065111;28;20047;-41
2022/10/26 00:43:51;;;;;;;;;;;9.40;99.90;;;;;;5067376;28;20502;-42
2022/10/26 00:46:21;;;;;;;43.47;18.40;;;10.10;99.90;;;;;;5066477;28;20425;-41
2022/10/26 00:48:57;;;;;;;32.20;18.90;;;9.40;99.90;;;;;;5066557;28;20049;-41
2022/10/26 00:51:41;;;;;;;34.42;18.10;;;8.80;99.90;;;;;;5066380;28;20044;-42
2022/10/26 00:54:12;;;;;;;41.03;18.85;;;8.80;99.90;;;;;;5065093;28;20044;-42
2022/10/26 00:56:38;;;;;;;34.63;17.77;;;10.00;99.90;;;;;;5066913;28;20059;-43
2022/10/26 00:59:09;;;;;;;38.42;19.02;;;9.50;99.90;;;;;;5070623;28;20044;-41
2022/10/26 01:01:39;;;;;;;45.70;20.17;;;9.70;99.90;;;;;;5070757;28;20110;-41
2022/10/26 01:04:05;;;;;;;40.17;19.00;;;8.70;99.90;;;;;;5070804;28;20045;-41
2022/10/26 01:06:33;;;;;;;36.63;19.55;;;8.70;99.90;;;;;;5069850;28;20051;-41
2022/10/26 01:08:59;;;;;;;38.42;19.73;;;8.70;99.90;;;;;;5070327;28;20115;-41
2022/10/26 01:11:25;;;;;;;34.80;19.27;;;8.50;99.90;;;;;;5070252;28;20115;-41
2022/10/26 01:13:52;;;;;;;37.15;19.73;;;8.60;99.90;;;;;;5069999;28;20082;-44
2022/10/26 01:16:27;;;;;;;41.05;19.50;;;8.60;99.90;;;;;;5069806;28;20498;-41
2022/10/26 01:19:11;;;;;;;39.38;19.50;;;9.60;99.90;;;;;;5069895;28;20497;-41
2022/10/26 01:21:47;;;;;;;39.42;19.27;;;8.60;99.90;;;;;;5069847;28;20036;-42
2022/10/26 01:24:48;;;;;;;34.90;19.13;;;9.50;99.90;;;;;;5069921;28;20071;-41
2022/10/26 01:27:35;;;;;;;35.13;19.75;;;8.60;99.90;;;;;;5050855;28;20553;-41
2022/10/26 01:30:26;;;;;;;41.30;19.73;;;8.60;99.90;;;;;;5070384;28;20045;-41
2022/10/26 01:33:21;;;;;;;47.75;20.65;;;8.60;99.90;;;;;;5069851;28;20048;-42
2022/10/26 01:35:59;;;;;;;33.33;19.00;;;8.50;99.90;;;;;;5047572;28;20061;-41
2022/10/26 01:38:57;;;;;;;36.88;19.92;;;8.50;99.90;;;;;;5048139;28;20045;-41
2022/10/26 01:41:27;;;;;;;33.53;18.98;;;9.20;99.90;;;;;;5026343;28;20053;-41
2022/10/26 01:43:58;;;;;;;39.75;20.45;;;8.50;99.90;;;;;;5050203;28;20041;-41
2022/10/26 01:46:26;;;;;;;41.03;20.45;;;8.50;99.90;;;;;;5050105;28;20037;-42
2022/10/26 01:48:57;;;;;;;41.13;21.35;;;8.70;99.90;;;;;;5050347;28;20051;-41
2022/10/26 01:51:24;;;;;;;41.97;19.75;;;8.30;99.90;;;;;;5049615;28;20055;-41
2022/10/26 01:53:49;;;;;;;40.88;20.45;;;8.70;99.90;;;;;;5049349;28;20098;-41
2022/10/26 01:56:26;;;;;;;36.65;20.67;;;9.90;99.90;;;;;;5049693;28;20049;-41
2022/10/26 01:59:02;;;;;;;34.53;19.98;;;8.40;99.90;;;;;;5049316;28;20045;-41
2022/10/26 02:02:00;;;;;;;38.33;21.08;;;8.30;99.90;;;;;;5048868;28;20367;-41
2022/10/26 02:04:49;;;;;;;40.30;19.85;;;8.30;99.90;;;;;;4995166;28;20137;-43
2022/10/26 02:08:03;;;;;;;50.13;24.30;;;8.40;99.90;;;;;;5029103;28;20060;-42
2022/10/26 02:11:04;;;;;;;39.40;21.15;;;8.00;99.90;;;;;;5006628;28;20045;-43
2022/10/26 02:13:56;;;;;;;43.55;22.38;;;8.10;99.90;;;;;;4993851;28;20058;-41
2022/10/26 02:16:22;;;;;;;41.75;21.60;;;8.40;99.90;;;;;;5044302;28;20095;-42
2022/10/26 02:18:53;;;;;;;48.60;21.75;;;8.30;99.90;;;;;;5048206;28;20095;-41
2022/10/26 02:21:25;;;;;;;42.33;23.00;;;8.40;99.90;;;;;;5048837;28;20088;-41
2022/10/26 02:23:53;;;;;;;45.22;24.00;;;8.50;99.90;;;;;;5049004;28;20041;-42
2022/10/26 02:26:23;;;;;;;43.30;22.73;;;8.30;99.90;;;;;;5048956;28;20041;-41
2022/10/26 02:28:52;;;;;;;41.00;21.00;;;9.00;99.90;;;;;;5048470;28;20048;-42
2022/10/26 02:31:19;;;;;;;46.38;22.35;;;8.30;99.90;;;;;;5048698;28;20040;-41
2022/10/26 02:33:49;;;;;;;47.60;24.45;;;8.30;99.90;;;;;;5054453;28;20493;-42
2022/10/26 02:36:28;;;;;;;45.17;23.60;;;9.40;99.90;;;;;;5068945;28;20055;-41
2022/10/26 02:38:55;;;;;;;49.13;24.58;;;8.20;99.90;;;;;;5068830;28;20409;-41
2022/10/26 02:41:24;;;;;;;47.47;23.83;;;8.40;99.90;;;;;;5069025;28;20465;-42
2022/10/26 02:43:55;;;;;;;41.08;23.70;;;8.20;99.90;;;;;;5069245;28;20040;-41
2022/10/26 02:46:24;;;;;;;50.10;24.50;;;8.30;99.90;;;;;;5068305;28;20048;-41
2022/10/26 02:48:50;;;;;;;47.55;23.63;;;8.40;99.90;;;;;;5067947;28;20036;-41
2022/10/26 02:51:43;;;;;;;46.88;24.33;;;8.00;99.90;;;;;;5067971;28;20052;-42
2022/10/26 02:54:30;;;;;;;44.20;23.20;;;8.30;99.90;;;;;;5067827;28;20052;-41
2022/10/26 02:57:18;;;;;;;49.42;25.40;;;8.10;99.90;;;;;;5068360;28;20110;-41
2022/10/26 02:59:46;;;;;;;45.78;23.77;;;7.70;99.90;;;;;;5068176;28;20044;-42
2022/10/26 03:02:15;;;;;;;47.00;24.85;;;8.30;99.90;;;;;;5067810;28;20076;-41
2022/10/26 03:04:41;;;;;;;49.45;25.15;;;9.20;99.90;;;;;;5067782;28;20101;-42
2022/10/26 03:07:07;;;;;;;53.72;24.98;;;8.20;99.90;;;;;;5067733;28;20053;-40
2022/10/26 03:09:32;;;;;;;48.78;25.15;;;8.20;99.90;;;;;;5067457;28;20131;-41
2022/10/26 03:11:58;;;;;;;45.00;24.58;;;8.10;99.90;;;;;;5067889;28;20431;-41
2022/10/26 03:14:24;;;;;;;44.35;23.98;;;7.80;99.90;;;;;;5067630;28;20087;-41
2022/10/26 03:16:49;;;;;;;49.30;25.02;;;8.90;99.90;;;;;;5067850;28;20043;-41
2022/10/26 03:19:15;;;;;;;48.35;24.30;;;8.00;99.90;;;;;;5066747;28;20784;-41
2022/10/26 03:21:41;;;;;;;63.88;26.55;;;8.90;99.90;;;;;;5067372;28;20481;-41
2022/10/26 03:24:08;;;;;;;54.05;25.17;;;8.20;99.90;;;;;;5067937;28;20605;-41
2022/10/26 03:26:33;;;;;;;61.15;26.75;;;8.20;99.90;;;;;;5067702;28;20040;-41
2022/10/26 03:28:59;;;;;;;53.55;26.13;;;7.80;99.90;;;;;;5067677;28;20504;-41
2022/10/26 03:31:25;;;;;;;47.20;25.50;;;8.10;99.90;;;;;;5067269;28;20067;-41
2022/10/26 03:33:50;;;;;;;44.25;23.83;;;8.00;99.90;;;;;;5067594;28;20048;-41
2022/10/26 03:36:16;;;;;;;57.80;25.85;;;8.30;99.90;;;;;;5067557;28;20048;-41
2022/10/26 03:38:42;;;;;;;47.88;24.30;;;8.70;99.90;;;;;;5066955;28;20479;-41
2022/10/26 03:41:07;;;;;;;55.58;27.08;;;8.20;99.90;;;;;;5067240;28;20119;-41
2022/10/26 03:43:33;;;;;;;56.10;26.58;;;8.20;99.90;;;;;;5066907;28;20191;-42
2022/10/26 03:45:58;;;;;;;52.85;25.63;;;8.20;99.90;;;;;;5067173;28;20516;-41
2022/10/26 03:48:24;;;;;;;61.47;27.00;;;8.40;99.90;;;;;;5067038;28;20048;-42
2022/10/26 03:50:50;;;;;;;46.50;23.80;;;8.10;99.90;;;;;;5067008;28;20051;-42
2022/10/26 03:53:15;;;;;;;60.40;26.48;;;8.90;99.90;;;;;;5065970;28;20396;-41
2022/10/26 03:55:44;;;;;;;49.92;25.48;;;8.20;99.90;;;;;;5066997;28;20074;-41
2022/10/26 03:58:10;;;;;;;52.15;26.35;;;7.90;99.90;;;;;;5067146;28;20040;-41
2022/10/26 04:00:35;;;;;;;57.08;25.83;;;8.00;99.90;;;;;;5066961;28;20538;-42
2022/10/26 04:03:01;;;;;;;52.25;25.48;;;8.10;99.90;;;;;;5066971;28;20894;-41
2022/10/26 04:05:28;;;;;;;52.58;25.98;;;7.90;99.90;;;;;;5067203;28;20494;-41
2022/10/26 04:07:59;;;;;;;63.75;27.73;;;8.10;99.90;;;;;;5067423;28;20075;-42
2022/10/26 04:10:26;;;;;;;49.17;25.80;;;8.00;99.90;;;;;;5066954;28;20044;-41
2022/10/26 04:12:53;;;;;;;55.40;26.02;;;8.20;99.90;;;;;;5066506;28;20579;-41
2022/10/26 04:15:20;;;;;;;54.20;27.55;;;7.90;99.90;;;;;;5066778;28;20134;-42
2022/10/26 04:17:46;;;;;;;53.65;26.75;;;7.90;99.90;;;;;;5066603;28;20040;-41
2022/10/26 04:20:12;;;;;;;54.15;26.52;;;8.10;99.90;;;;;;5052309;28;20150;-41
2022/10/26 04:22:38;;;;;;;50.90;26.88;;;8.90;99.90;;;;;;5046803;28;20098;-41
2022/10/26 04:25:04;;;;;;;56.10;27.25;;;9.20;99.90;;;;;;5046707;28;20458;-41
2022/10/26 04:27:30;;;;;;;65.88;29.40;;;;;;;;;;5046479;28;20049;-41
2022/10/26 04:29:56;;;;;;;52.78;27.45;;;;;;;;;;5046596;28;20040;-41
2022/10/26 04:32:22;;;;;;;65.20;29.45;;;;;;;;;;5050112;28;20470;-41
2022/10/26 04:34:48;;;;;;;56.55;27.67;;;8.30;99.90;;;;;;5063722;28;20048;-41
2022/10/26 04:37:14;;;;;;;59.85;28.27;;;8.00;99.90;;;;;;5070774;28;20375;-42
2022/10/26 04:39:39;;;;;;;54.30;26.98;;;8.00;99.90;;;;;;5070205;28;20111;-42
2022/10/26 04:42:05;;;;;;;54.72;27.73;;;8.10;99.90;;;;;;5071348;28;20183;-42
2022/10/26 04:44:31;;;;;;;53.50;26.42;;;8.10;99.90;;;;;;5069677;28;20090;-42
2022/10/26 04:46:57;;;;;;;58.28;27.92;;;7.90;99.90;;;;;;5070985;28;20121;-41
2022/10/26 04:49:23;;;;;;;54.75;26.27;;;9.70;99.90;;;;;;5070144;28;20048;-41
2022/10/26 04:51:48;;;;;;;68.68;29.65;;;8.10;99.90;;;;;;5069877;28;20151;-42
2022/10/26 04:54:14;;;;;;;57.75;26.88;;;7.90;99.90;;;;;;5070131;28;20123;-41
2022/10/26 04:56:40;;;;;;;65.80;28.48;;;8.10;99.90;;;;;;5069925;28;20120;-41
2022/10/26 04:59:06;;;;;;;58.17;27.42;;;8.20;99.90;;;;;;5070455;28;20047;-41
2022/10/26 05:01:31;;;;;;;52.13;26.98;;;8.60;99.90;;;;;;5070076;28;20098;-41
2022/10/26 05:03:57;;;;;;;55.25;28.33;;;8.40;99.90;;;;;;5070259;28;20044;-41
2022/10/26 05:06:23;;;;;;;51.30;26.73;;;8.40;99.90;;;;;;5070338;28;20048;-41
2022/10/26 05:08:48;;;;;;;52.60;27.83;;;8.30;99.90;;;;;;5069404;28;20063;-41
2022/10/26 05:11:14;;;;;;;48.00;25.35;;;8.40;99.90;;;;;;5069614;28;20173;-41
2022/10/26 05:13:40;;;;;;;49.45;26.65;;;8.50;99.90;;;;;;5069486;28;20048;-42
2022/10/26 05:16:06;;;;;;;45.55;27.00;;;9.30;99.90;;;;;;5070004;28;20040;-41
2022/10/26 05:18:32;;;;;;;55.95;26.48;;;8.30;99.90;;;;;;5069798;28;20063;-41
2022/10/26 05:20:58;;;;;;;53.40;26.42;;;8.50;99.90;;;;;;5070068;28;20053;-41
2022/10/26 05:23:23;;;;;;;49.83;25.45;;;9.20;99.90;;;;;;5070112;28;20045;-41
2022/10/26 05:25:49;;;;;;;44.10;24.48;;;8.50;99.90;;;;;;5070155;28;20079;-41
2022/10/26 05:28:16;;;;;;;44.60;25.13;;;8.40;99.90;;;;;;5070410;28;20040;-41
2022/10/26 05:30:44;;;;;;;50.47;24.63;;;8.70;99.90;;;;;;5069829;28;20048;-41
2022/10/26 05:33:12;;;;;;;42.75;23.95;;;8.60;99.90;;;;;;5069692;28;20044;-41
2022/10/26 05:35:37;;;;;;;40.85;23.67;;;8.60;99.90;;;;;;5069564;28;20044;-41
2022/10/26 05:38:14;;;;;;;42.80;22.23;;;8.50;99.90;;;;;;5069839;28;20434;-41
2022/10/26 05:40:51;;;;;;;39.38;22.90;;;9.00;99.90;;;;;;5069585;28;20749;-41
2022/10/26 05:43:17;;;;;;;45.28;21.95;;;9.10;99.90;;;;;;5069107;28;20539;-41
2022/10/26 05:45:43;;;;;;;47.25;23.60;;;9.90;99.90;;;;;;5069687;28;20044;-41
2022/10/26 05:48:09;;;;;;;39.85;22.40;;;9.20;99.90;;;;;;5069569;28;20192;-41
2022/10/26 05:50:35;;;;;;;35.42;20.38;;;9.10;99.90;;;;;;5069859;28;20127;-41
2022/10/26 05:53:01;;;;;;;35.03;21.05;;;8.80;99.90;;;;;;5069519;28;20124;-42
2022/10/26 05:55:27;;;;;;;42.40;21.83;;;9.20;99.90;;;;;;5069942;28;20456;-41
2022/10/26 05:57:52;;;;;;;32.63;19.45;;;8.90;99.90;;;;;;5069718;28;20040;-41
2022/10/26 06:00:21;;;;;;;34.25;19.40;;;9.00;99.90;;;;;;5069859;28;20040;-41
2022/10/26 06:03:07;;;;;;;31.45;19.23;;;9.00;99.90;;;;;;5069249;28;20044;-41
2022/10/26 06:05:37;;;;;;;35.05;18.77;;;8.80;99.90;;;;;;5062739;28;20210;-41
2022/10/26 06:08:09;;;;;;;29.15;18.05;;;9.10;99.90;;;;;;5048693;28;20608;-41
2022/10/26 06:10:35;;;;;;;27.23;18.05;;;9.20;99.90;;;;;;5049256;28;20500;-42
2022/10/26 06:13:01;;;;;;;29.88;17.85;;;9.10;99.90;;;;;;5048916;28;20049;-41
2022/10/26 06:15:28;;;;;;;33.03;19.08;;;9.10;99.90;;;;;;5048917;28;20045;-41
2022/10/26 06:18:01;;;;;;;30.27;18.05;;;9.10;99.90;;;;;;5048687;28;20502;-41
2022/10/26 06:20:43;;;;;;;31.92;17.50;;;8.90;99.90;;;;;;5049500;28;20049;-41
2022/10/26 06:23:33;;;;;;;30.38;17.48;;;9.10;99.90;;;;;;5049534;28;20037;-41
2022/10/26 06:26:05;;;;;;;28.50;17.40;;;9.10;99.90;;;;;;5049516;28;20053;-41
2022/10/26 06:28:59;;;;;;;27.17;17.08;;;9.00;99.90;;;;;;5048709;28;20044;-41
2022/10/26 06:31:24;;;;;;;27.08;16.35;;;9.20;99.90;;;;;;5049433;28;20407;-41
2022/10/26 06:33:56;;;;;;;29.92;16.73;;;9.50;99.90;;;;;;5049246;28;20037;-41
2022/10/26 06:36:25;;;;;;;27.25;15.25;;;9.40;99.90;;;;;;5049168;28;20052;-41
2022/10/26 06:39:04;;;;;;;22.98;15.05;;;9.50;99.90;;;;;;5049247;28;20052;-41
2022/10/26 06:41:32;;;;;;;28.63;15.60;;;9.30;99.90;;;;;;5048180;28;20049;-41
2022/10/26 06:43:58;;;;;;;25.27;15.30;;;9.30;99.90;;;;;;5049174;28;20037;-42
2022/10/26 06:46:31;;;;;;;30.23;15.88;;;9.40;99.90;;;;;;5048853;28;20563;-41
2022/10/26 06:49:19;;;;;;;28.75;15.05;;;9.40;99.90;;;;;;5048753;28;20041;-42
2022/10/26 06:52:08;;;;;;;21.42;13.98;;;9.40;99.90;;;;;;5048697;28;20055;-41
2022/10/26 06:54:51;;;;;;;24.98;14.43;;;9.40;99.90;;;;;;5047422;28;20049;-41
2022/10/26 06:57:21;;;;;;;25.55;15.25;;;9.50;99.90;;;;;;5048990;28;20060;-41
2022/10/26 06:59:59;;;;;;;24.80;14.23;;;9.40;99.90;;;;;;5048091;28;20048;-42
2022/10/26 07:02:25;;;;;;;18.55;12.55;;;9.50;99.90;;;;;;5048330;28;20040;-41
2022/10/26 07:04:51;;;;;;;23.63;14.10;;;9.50;99.90;;;;;;5047789;28;20447;-41
2022/10/26 07:07:22;;;;;;;24.50;13.98;;;9.40;99.90;;;;;;5047674;28;20044;-41
2022/10/26 07:09:48;;;;;;;29.25;12.45;;;9.60;99.90;;;;;;5047826;28;20398;-41
2022/10/26 07:12:14;;;;;;;17.90;11.70;;;9.60;99.90;;;;;;5048288;28;20043;-41
2022/10/26 07:14:39;;;;;;;18.88;11.55;;;9.80;99.90;;;;;;5047574;28;20041;-41
2022/10/26 07:17:05;;;;;;;17.02;11.20;;;9.80;99.90;;;;;;5047676;28;20056;-41
2022/10/26 07:19:31;;;;;;;18.08;11.15;;;9.60;99.90;;;;;;5047758;28;20049;-41
2022/10/26 07:21:59;;;;;;;17.52;10.18;;;9.60;99.90;;;;;;5047686;28;20505;-41
2022/10/26 07:24:25;;;;;;;17.25;9.93;;;11.50;99.90;;;;;;5047609;28;20071;-42
2022/10/26 07:26:53;;;;;;;15.77;9.68;;;9.70;99.90;;;;;;5047724;28;20056;-41
2022/10/26 07:29:18;;;;;;;20.95;10.23;;;10.20;99.90;;;;;;5047634;28;20045;-41
2022/10/26 07:31:44;;;;;;;18.45;10.20;;;9.70;99.90;;;;;;5047655;28;20048;-41
2022/10/26 07:34:09;;;;;;;15.93;10.00;;;9.70;99.90;;;;;;5056685;28;20079;-41
2022/10/26 07:36:35;;;;;;;20.55;10.18;;;10.30;99.90;;;;;;5067812;28;20382;-41
2022/10/26 07:39:02;;;;;;;16.05;9.98;;;10.00;99.90;;;;;;5067492;28;20489;-42
2022/10/26 07:41:29;;;;;;;15.55;10.13;;;9.80;99.90;;;;;;5066405;28;20033;-41
2022/10/26 07:43:54;;;;;;;12.85;9.10;;;9.90;99.90;;;;;;5067884;28;20608;-41
2022/10/26 07:46:20;;;;;;;12.38;8.27;;;10.50;99.90;;;;;;5068365;28;20166;-41
2022/10/26 07:48:46;;;;;;;16.67;8.93;;;10.60;99.90;;;;;;5067898;28;20036;-41
2022/10/26 07:51:12;;;;;;;15.38;9.32;;;10.30;99.90;;;;;;5063039;28;20045;-41
2022/10/26 07:53:37;;;;;;;13.57;8.20;;;10.60;99.90;;;;;;5067753;28;20075;-41
2022/10/26 07:56:03;;;;;;;11.50;8.57;;;10.70;99.90;;;;;;5062497;28;20055;-42
2022/10/26 07:58:29;;;;;;;12.43;8.48;;;10.70;99.90;;;;;;5056960;28;20033;-41
2022/10/26 08:00:55;;;;;;;10.05;7.72;;;11.20;99.90;;;;;;5057671;28;20489;-42
2022/10/26 08:03:21;;;;;;;9.20;7.00;;;10.90;99.90;;;;;;5056780;28;20033;-41
2022/10/26 08:05:50;;;;;;;10.68;7.32;;;11.10;99.90;;;;;;5056838;28;20538;-42
2022/10/26 08:08:19;;;;;;;8.38;6.70;;;11.30;99.90;;;;;;5050074;28;20045;-41
2022/10/26 08:10:45;;;;;;;11.32;6.68;;;11.20;99.90;;;;;;5047540;28;20530;-41
2022/10/26 08:13:11;;;;;;;11.25;6.05;;;11.80;99.90;;;;;;5047146;28;20052;-41
2022/10/26 08:15:37;;;;;;;10.13;6.18;;;11.50;99.90;;;;;;5046955;28;20045;-41
2022/10/26 08:18:05;;;;;;;9.93;7.18;;;11.60;99.90;;;;;;5047062;28;20585;-42
2022/10/26 08:20:31;;;;;;;10.13;5.63;;;11.80;99.90;;;;;;5047292;28;20225;-41
2022/10/26 08:22:57;;;;;;;8.75;6.20;;;12.00;99.90;;;;;;5047163;28;20372;-41
2022/10/26 08:25:23;;;;;;;8.02;6.05;;;12.20;99.90;;;;;;5047368;28;20114;-42
2022/10/26 08:27:49;;;;;;;11.82;5.32;;;12.60;99.90;;;;;;5048122;28;20045;-42
2022/10/26 08:30:15;;;;;;;9.55;5.80;;;12.00;99.90;;;;;;5047424;28;20494;-42
2022/10/26 08:32:43;;;;;;;10.07;5.88;;;12.00;99.90;;;;;;5047908;28;20071;-42
2022/10/26 08:35:09;;;;;;;10.45;4.88;;;12.00;99.90;;;;;;5054244;28;20072;-42
2022/10/26 08:37:35;;;;;;;8.52;4.75;;;12.10;99.90;;;;;;5054852;28;20140;-43
2022/10/26 08:40:02;;;;;;;7.82;4.68;;;12.80;99.90;;;;;;5054630;28;20585;-42
2022/10/26 08:42:35;;;;;;;9.52;5.22;;;12.40;99.90;;;;;;5056958;28;20058;-41
2022/10/26 08:45:06;;;;;;;8.93;5.32;;;12.30;99.90;;;;;;5054626;28;20048;-42
2022/10/26 08:47:42;;;;;;;9.43;4.90;;;12.30;99.90;;;;;;5055552;28;20147;-41
2022/10/26 08:50:13;;;;;;;9.90;5.30;;;12.20;99.90;;;;;;5052431;28;20041;-41
2022/10/26 08:53:12;;;;;;;9.07;4.85;;;12.20;99.90;;;;;;5051825;28;20563;-41
2022/10/26 08:56:02;;;;;;;8.75;5.63;;;12.50;99.90;;;;;;5060314;28;20504;-41
2022/10/26 08:58:35;;;;;;;7.60;4.75;;;12.10;99.90;;;;;;5066791;28;20036;-41
2022/10/26 09:01:02;;;;;;;8.68;4.78;;;11.90;99.90;;;;;;5066747;28;20453;-41
2022/10/26 09:03:27;;;;;;;10.55;4.50;;;12.00;99.90;;;;;;5066939;28;20049;-41
2022/10/26 09:06:27;;;;;;;8.43;4.85;;;12.10;99.90;;;;;;5066807;28;20128;-41
2022/10/26 09:09:02;;;;;;;7.70;5.03;;;12.30;99.90;;;;;;5065352;28;20079;-42
2022/10/26 09:11:53;;;;;;;9.60;5.80;;;12.40;99.90;;;;;;5067055;28;20040;-43
2022/10/26 09:14:23;;;;;;;9.00;4.63;;;12.50;99.90;;;;;;5061990;28;20079;-40
2022/10/26 09:16:56;;;;;;;6.85;4.22;;;12.70;99.90;;;;;;5062807;28;20486;-43
2022/10/26 09:19:31;;;;;;;10.27;5.40;;;12.80;99.90;;;;;;5066078;28;20052;-45
2022/10/26 09:22:08;;;;;;;9.55;5.18;;;13.00;99.90;;;;;;5067262;28;20055;-44
2022/10/26 09:24:38;;;;;;;7.55;3.67;;;13.00;99.90;;;;;;5057344;28;20044;-46
2022/10/26 09:27:28;;;;;;;5.85;3.80;;;13.20;99.90;;;;;;5052994;28;20037;-44
2022/10/26 09:29:58;;;;;;;7.95;4.10;;;13.40;99.90;;;;;;5052472;28;20098;-48
2022/10/26 09:32:51;;;;;;;6.47;4.10;;;13.60;99.90;;;;;;5064235;28;20028;-46
2022/10/26 09:35:24;;;;;;;9.40;4.20;;;13.70;99.90;;;;;;5066755;28;20041;-55
2022/10/26 09:38:02;;;;;;;7.93;3.28;;;14.10;99.90;;;;;;5066148;28;20048;-49
2022/10/26 09:40:40;;;;;;;8.52;3.97;;;14.30;99.90;;;;;;5071806;28;20529;-44
2022/10/26 09:43:12;;;;;;;5.72;3.28;;;14.10;99.90;;;;;;5069858;28;20109;-47
2022/10/26 09:45:43;;;;;;;4.85;3.22;;;14.20;99.90;;;;;;5069741;28;20788;-46
2022/10/26 09:48:42;;;;;;;6.63;3.15;;;14.30;99.90;;;;;;5066303;28;20062;-41
2022/10/26 09:51:10;;;;;;;6.93;2.70;;;14.40;99.90;;;;;;5066957;28;20854;-40
2022/10/26 09:53:35;;;;;;;5.45;2.28;;;14.60;99.90;;;;;;5065075;28;20764;-40
2022/10/26 09:56:12;;;;;;;5.47;3.05;;;14.60;99.90;;;;;;5064809;28;20070;-39
2022/10/26 09:58:51;;;;;;;8.07;2.10;;;14.80;99.90;;;;;;5066850;28;20037;-40
2022/10/26 10:01:31;;;;;;;5.32;2.20;;;14.90;99.90;;;;;;5064976;28;20432;-40
2022/10/26 10:04:12;;;;;;;8.25;2.10;;;14.90;99.90;;;;;;5065378;28;20089;-40
2022/10/26 10:06:43;;;;;;;4.72;1.73;;;15.10;99.90;;;;;;5062031;28;20594;-40
2022/10/26 10:09:13;;;;;;;5.22;1.80;;;15.10;99.90;;;;;;5058838;28;20043;-42
2022/10/26 10:11:43;;;;;;;3.92;1.42;;;15.40;99.90;;;;;;5064883;28;20039;-40
2022/10/26 10:14:16;;;;;;;6.50;1.63;;;15.50;99.90;;;;;;5032799;28;20052;-41
2022/10/26 10:16:51;;;;;;;3.70;1.20;;;15.70;99.90;;;;;;5063876;28;20439;-42
2022/10/26 10:19:23;;;;;;;7.88;1.88;;;15.60;99.90;;;;;;5064122;28;20097;-42
2022/10/26 10:21:50;;;;;;;4.97;1.85;;;15.70;99.90;;;;;;5058313;28;20147;-42
2022/10/26 10:24:23;;;;;;;3.72;1.40;;;15.90;99.90;;;;;;5061880;28;20036;-45
2022/10/26 10:26:58;;;;;;;4.93;1.52;;;16.00;99.90;;;;;;5060900;28;20048;-44
2022/10/26 10:29:32;;;;;;;4.85;1.20;;;16.10;99.90;;;;;;5064793;28;20044;-43
2022/10/26 10:32:01;;;;;;;7.05;1.80;;;16.10;99.90;;;;;;5064640;28;20091;-46
2022/10/26 10:34:27;;;;;;;5.00;1.63;;;;;;;;;;5064430;28;20032;-47
2022/10/26 10:36:53;;;;;;;7.50;1.58;;;15.60;99.90;;;;;;5064436;28;20436;-46
2022/10/26 10:39:34;;;;;;;5.53;1.55;;;16.30;99.90;;;;;;5068237;28;20040;-48
2022/10/26 10:42:01;;;;;;;7.00;2.08;;;16.40;99.90;;;;;;5065085;28;20445;-45
2022/10/26 10:44:30;;;;;;;4.82;1.80;;;16.40;99.90;;;;;;5067588;28;20830;-42
2022/10/26 10:47:04;;;;;;;4.72;1.20;;;16.50;99.90;;;;;;5067401;28;20116;-43
2022/10/26 10:49:31;;;;;;;4.38;1.70;;;16.50;99.90;;;;;;5063992;28;20068;-49
2022/10/26 10:51:58;;;;;;;5.13;1.35;;;16.50;99.90;;;;;;5065638;28;20580;-49
2022/10/26 10:54:31;;;;;;;6.57;1.63;;;16.50;99.90;;;;;;5065215;28;20072;-48
2022/10/26 10:57:45;;;;;;;6.30;2.20;;;16.60;99.90;;;;;;5068021;28;20044;-48
2022/10/26 11:00:11;;;;;;;4.47;1.88;;;16.70;99.90;;;;;;5025519;28;20041;-48
2022/10/26 11:03:15;;;;;;;8.48;1.80;;;16.90;99.90;;;;;;5005429;28;20816;-45
2022/10/26 11:05:52;;;;;;;4.43;1.65;;;17.10;99.90;;;;;;5055914;28;20043;-41
2022/10/26 11:08:57;;;;;;;4.60;1.70;;;17.10;99.90;;;;;;5075123;28;20477;-45
2022/10/26 11:11:35;;;;;;;3.95;1.60;;;17.20;99.90;;;;;;5067829;28;20655;-44
2022/10/26 11:14:10;;;;;;;6.63;1.52;;;17.30;99.90;;;;;;5064684;28;20086;-47
2022/10/26 11:16:47;;;;;;;3.83;1.38;;;17.40;99.90;;;;;;5063666;28;20044;-38
2022/10/26 11:19:18;;;;;;;5.22;1.42;;;17.40;99.90;;;;;;5066357;28;20424;-40
2022/10/26 11:21:49;;;;;;;4.38;1.52;;;17.40;99.90;;;;;;5065974;28;20501;-39
2022/10/26 11:24:23;;;;;;;5.72;1.70;;;17.50;99.90;;;;;;5066458;28;20047;-39
2022/10/26 11:27:03;;;;;;;3.97;1.25;;;17.50;99.90;;;;;;5065755;28;20788;-39
2022/10/26 11:29:36;;;;;;;3.60;1.50;;;17.50;99.90;;;;;;5069034;28;20040;-40
2022/10/26 11:32:21;;;;;;;5.25;1.80;;;17.50;99.90;;;;;;5066246;28;20054;-42
2022/10/26 11:34:57;;;;;;;4.78;1.35;;;17.70;99.90;;;;;;5075466;28;20048;-48
2022/10/26 11:37:38;;;;;;;7.68;1.40;;;17.40;99.90;;;;;;5066797;28;20040;-45
2022/10/26 11:40:42;;;;;;;3.67;1.23;;;17.50;99.90;;;;;;5067244;28;20581;-45
2022/10/26 11:43:13;;;;;;;7.97;1.73;;;17.50;99.90;;;;;;5076529;28;20075;-47
2022/10/26 11:45:42;;;;;;;4.63;1.90;;;17.60;99.90;;;;;;5064833;28;20054;-45
2022/10/26 11:48:18;;;;;;;5.95;1.67;;;17.50;99.90;;;;;;5068142;28;20421;-42
2022/10/26 11:50:49;;;;;;;5.60;1.42;;;17.30;99.90;;;;;;5051991;28;20043;-40
2022/10/26 11:53:26;;;;;;;2.85;1.23;;;17.50;99.90;;;;;;5064036;28;20043;-43
2022/10/26 11:55:54;;;;;;;5.10;1.55;;;17.60;99.90;;;;;;5065534;28;20053;-45
2022/10/26 11:58:26;;;;;;;5.63;1.63;;;17.50;99.90;;;;;;5064469;28;20052;-44
2022/10/26 12:00:54;;;;;;;;;;;17.50;99.90;;;;;;5065050;28;20038;-45
2022/10/26 12:03:27;;;;;;;7.55;1.60;;;17.50;99.90;;;;;;5063073;28;19947;-47
2022/10/26 12:05:53;;;;;;;5.45;1.65;;;17.50;99.90;;;;;;5065005;28;20060;-44
2022/10/26 12:08:26;;;;;;;4.93;1.75;;;17.50;99.90;;;;;;5063328;28;20102;-45
2022/10/26 12:11:18;;;;;;;4.70;1.85;;;17.50;99.90;;;;;;5066223;28;20044;-40
2022/10/26 12:13:58;;;;;;;3.80;1.50;;;17.40;99.90;;;;;;5058239;28;20055;-39
2022/10/26 12:16:34;;;;;;;8.35;1.40;;;17.40;99.90;;;;;;5065384;28;20040;-40
2022/10/26 12:19:12;;;;;;;7.03;1.83;;;17.30;99.90;;;;;;5064065;28;20056;-42
2022/10/26 12:21:41;;;;;;;3.85;1.35;;;18.10;99.90;;;;;;5066597;28;20363;-40
2022/10/26 12:24:22;;;;;;;3.97;1.40;;;17.40;99.90;;;;;;5064149;28;20101;-43
2022/10/26 12:27:04;;;;;;;3.55;1.48;;;17.40;99.90;;;;;;5067272;28;20048;-39
2022/10/26 12:29:46;;;;;;;5.43;1.55;;;17.40;99.90;;;;;;5067122;28;20056;-40
2022/10/26 12:32:29;;;;;;;3.70;1.33;;;17.40;99.90;;;;;;5064385;28;20037;-42
2022/10/26 12:34:59;;;;;;;4.80;1.88;;;17.40;99.90;;;;;;5065780;28;21238;-41
2022/10/26 12:37:34;;;;;;;3.45;1.58;;;17.50;99.90;;;;;;5063297;28;20371;-39
2022/10/26 12:40:37;;;;;;;4.55;1.80;;;17.60;99.90;;;;;;5074718;28;20033;-39
2022/10/26 12:43:15;;;;;;;4.50;1.77;;;17.60;99.90;;;;;;5063166;28;20029;-41
2022/10/26 12:45:42;;;;;;;8.02;1.90;;;17.80;99.90;;;;;;5063935;28;20036;-42
2022/10/26 12:48:38;;;;;;;4.50;1.60;;;17.80;99.90;;;;;;5067269;28;20109;-40
2022/10/26 12:51:21;;;;;;;4.40;1.98;;;17.90;99.90;;;;;;5066043;28;20048;-40
2022/10/26 12:53:56;;;;;;;6.78;1.60;;;17.90;99.90;;;;;;5069868;28;20136;-42
2022/10/26 12:56:33;;;;;;;5.65;1.65;;;17.80;99.90;;;;;;5063957;28;20099;-41
2022/10/26 12:59:45;;;;;;;4.65;1.52;;;17.80;99.90;;;;;;5055029;28;20059;-44
2022/10/26 13:02:49;;;;;;;5.18;1.70;;;17.70;99.90;;;;;;5000481;28;20064;-45
2022/10/26 13:05:39;;;;;;;5.72;1.80;;;17.60;99.90;;;;;;5056636;28;20064;-45
2022/10/26 13:08:10;;;;;;;4.00;1.95;;;17.50;99.90;;;;;;5070850;28;20041;-45
2022/10/26 13:10:39;;;;;;;7.40;2.42;;;17.50;99.90;;;;;;5070112;28;20040;-45